createdAt,value
2022-09-28T00:02:03.710Z,3.35
2022-09-28T00:04:30.745Z,2.97
2022-09-28T00:06:57.946Z,3.30
2022-09-28T00:09:24.964Z,3.00
2022-09-28T00:11:53.690Z,3.00
2022-09-28T00:14:21.088Z,3.20
2022-09-28T00:16:48.723Z,2.97
2022-09-28T00:19:15.926Z,4.10
2022-09-28T00:21:43.053Z,3.45
2022-09-28T00:24:17.190Z,3.55
2022-09-28T00:26:51.612Z,3.15
2022-09-28T00:29:28.806Z,2.80
2022-09-28T00:32:02.364Z,3.10
2022-09-28T00:34:39.151Z,3.15
2022-09-28T00:37:06.491Z,2.83
2022-09-28T00:39:34.565Z,3.00
2022-09-28T00:42:02.107Z,2.70
2022-09-28T00:44:37.261Z,3.10
2022-09-28T00:47:40.636Z,3.13
2022-09-28T00:50:10.375Z,3.28
2022-09-28T00:52:57.591Z,3.15
2022-09-28T00:55:45.810Z,3.00
2022-09-28T00:58:15.269Z,3.33
2022-09-28T01:00:42.630Z,2.97
2022-09-28T01:03:09.720Z,3.15
2022-09-28T01:05:37.023Z,3.38
2022-09-28T01:08:04.049Z,3.22
2022-09-28T01:10:31.119Z,2.90
2022-09-28T01:12:59.322Z,3.13
2022-09-28T01:15:28.239Z,3.05
2022-09-28T01:18:07.671Z,2.90
2022-09-28T01:21:01.280Z,3.25
2022-09-28T01:23:46.476Z,3.10
2022-09-28T01:26:25.782Z,3.50
2022-09-28T01:28:56.517Z,2.80
2022-09-28T01:31:24.583Z,3.08
2022-09-28T01:34:13.698Z,2.90
2022-09-28T01:36:51.160Z,3.40
2022-09-28T01:39:24.616Z,3.33
2022-09-28T01:41:52.434Z,3.10
2022-09-28T01:44:20.864Z,3.50
2022-09-28T01:46:49.346Z,3.03
2022-09-28T01:49:20.356Z,3.30
2022-09-28T01:51:58.635Z,3.03
2022-09-28T01:54:34.751Z,2.90
2022-09-28T01:57:07.508Z,3.10
2022-09-28T02:02:05.619Z,3.00
2022-09-28T02:04:40.286Z,3.00
2022-09-28T02:07:27.926Z,3.08
2022-09-28T02:10:01.085Z,2.85
2022-09-28T02:12:35.416Z,3.15
2022-09-28T02:15:17.505Z,3.35
2022-09-28T02:20:13.706Z,2.78
2022-09-28T02:22:50.111Z,2.75
2022-09-28T02:25:31.288Z,3.17
2022-09-28T02:28:03.640Z,3.20
2022-09-28T02:30:31.075Z,3.13
2022-09-28T02:33:32.202Z,3.05
2022-09-28T02:35:59.991Z,3.00
2022-09-28T02:38:28.406Z,3.65
2022-09-28T02:41:08.656Z,3.10
2022-09-28T02:44:03.722Z,3.00
2022-09-28T02:46:32.883Z,3.00
2022-09-28T02:49:24.943Z,3.30
2022-09-28T02:52:13.823Z,2.90
2022-09-28T02:55:05.111Z,3.22
2022-09-28T02:57:41.277Z,3.13
2022-09-28T03:00:10.727Z,3.33
2022-09-28T03:03:01.921Z,3.17
2022-09-28T03:06:06.784Z,3.25
2022-09-28T03:08:54.994Z,2.58
2022-09-28T03:11:32.332Z,2.90
2022-09-28T03:13:59.269Z,3.10
2022-09-28T03:16:35.525Z,2.80
2022-09-28T03:19:02.689Z,3.10
2022-09-28T03:21:30.148Z,2.85
2022-09-28T03:23:57.718Z,3.15
2022-09-28T03:26:24.594Z,3.28
2022-09-28T03:28:51.556Z,3.20
2022-09-28T03:31:23.425Z,3.13
2022-09-28T03:33:51.412Z,2.58
2022-09-28T03:36:18.724Z,3.13
2022-09-28T03:38:46.228Z,3.10
2022-09-28T03:41:13.508Z,2.90
2022-09-28T03:43:42.687Z,2.88
2022-09-28T03:46:10.370Z,3.30
2022-09-28T03:48:42.583Z,2.70
2022-09-28T03:51:10.969Z,3.03
2022-09-28T03:53:39.167Z,3.15
2022-09-28T03:56:10.111Z,3.40
2022-09-28T03:58:37.305Z,2.97
2022-09-28T04:01:05.777Z,3.00
2022-09-28T04:03:33.042Z,3.25
2022-09-28T04:06:00.157Z,2.70
2022-09-28T04:08:27.305Z,3.28
2022-09-28T04:11:00.868Z,3.20
2022-09-28T04:13:28.563Z,3.15
2022-09-28T04:15:57.322Z,3.50
2022-09-28T04:18:25.549Z,3.10
2022-09-28T04:21:12.041Z,2.72
2022-09-28T04:23:43.009Z,3.13
2022-09-28T04:26:17.014Z,3.05
2022-09-28T04:29:06.823Z,3.10
2022-09-28T04:31:38.993Z,3.55
2022-09-28T04:34:05.998Z,3.50
2022-09-28T04:36:33.475Z,2.92
2022-09-28T04:39:00.537Z,3.05
2022-09-28T04:41:29.079Z,3.10
2022-09-28T04:43:56.444Z,3.60
2022-09-28T04:46:26.151Z,3.15
2022-09-28T04:49:13.112Z,3.65
2022-09-28T04:51:45.408Z,3.63
2022-09-28T04:54:12.748Z,3.08
2022-09-28T04:56:39.626Z,3.70
2022-09-28T04:59:06.591Z,3.05
2022-09-28T05:01:34.399Z,3.35
2022-09-28T05:04:23.665Z,3.10
2022-09-28T05:07:28.310Z,3.17
2022-09-28T05:09:55.953Z,3.28
2022-09-28T05:12:23.420Z,3.20
2022-09-28T05:14:50.363Z,3.50
2022-09-28T05:17:17.366Z,3.75
2022-09-28T05:20:00.751Z,3.50
2022-09-28T05:22:27.673Z,3.10
2022-09-28T05:24:55.938Z,3.45
2022-09-28T05:27:24.303Z,4.13
2022-09-28T05:30:00.183Z,3.42
2022-09-28T05:32:30.077Z,3.50
2022-09-28T05:35:15.809Z,3.17
2022-09-28T05:37:45.945Z,3.70
2022-09-28T05:40:13.032Z,3.47
2022-09-28T05:42:40.702Z,3.45
2022-09-28T05:45:08.583Z,3.63
2022-09-28T05:47:41.281Z,3.58
2022-09-28T05:50:11.815Z,3.25
2022-09-28T05:52:39.315Z,3.75
2022-09-28T05:55:07.631Z,3.50
2022-09-28T05:57:34.893Z,3.70
2022-09-28T06:00:05.864Z,3.60
2022-09-28T06:02:39.546Z,3.47
2022-09-28T06:05:09.020Z,3.63
2022-09-28T06:07:36.295Z,3.47
2022-09-28T06:10:03.406Z,3.63
2022-09-28T06:12:41.284Z,3.53
2022-09-28T06:15:14.960Z,3.35
2022-09-28T06:17:43.918Z,3.35
2022-09-28T06:20:30.301Z,3.38
2022-09-28T06:23:11.436Z,3.40
2022-09-28T06:25:38.574Z,3.55
2022-09-28T06:28:14.642Z,3.63
2022-09-28T06:30:42.263Z,3.30
2022-09-28T06:33:12.924Z,3.70
2022-09-28T06:35:40.909Z,3.67
2022-09-28T06:38:08.092Z,3.95
2022-09-28T06:40:35.132Z,3.85
2022-09-28T06:43:02.842Z,3.88
2022-09-28T06:45:53.523Z,4.05
2022-09-28T06:48:38.845Z,3.92
2022-09-28T06:51:08.246Z,4.05
2022-09-28T06:54:00.961Z,3.80
2022-09-28T06:56:40.081Z,3.70
2022-09-28T06:59:08.140Z,3.60
2022-09-28T07:01:36.842Z,3.95
2022-09-28T07:04:31.209Z,3.40
2022-09-28T07:07:36.911Z,3.88
2022-09-28T07:10:17.137Z,3.80
2022-09-28T07:13:05.591Z,3.63
2022-09-28T07:15:43.875Z,3.45
2022-09-28T07:18:13.772Z,3.42
2022-09-28T07:20:52.665Z,3.35
2022-09-28T07:23:21.142Z,2.40
2022-09-28T07:26:26.450Z,2.55
2022-09-28T07:29:07.316Z,2.35
2022-09-28T07:31:54.128Z,2.65
2022-09-28T07:34:58.725Z,2.67
2022-09-28T07:37:46.475Z,2.65
2022-09-28T07:40:31.930Z,2.67
2022-09-28T07:43:08.441Z,2.55
2022-09-28T07:45:36.157Z,2.70
2022-09-28T07:48:03.955Z,2.80
2022-09-28T07:50:56.943Z,2.80
2022-09-28T07:53:35.488Z,3.15
2022-09-28T07:56:37.670Z,2.78
2022-09-28T07:59:19.463Z,2.58
2022-09-28T08:02:04.907Z,2.70
2022-09-28T08:04:31.986Z,3.03
2022-09-28T08:07:00.392Z,3.50
2022-09-28T08:09:27.353Z,2.63
2022-09-28T08:12:13.650Z,2.90
2022-09-28T08:14:45.284Z,3.00
2022-09-28T08:17:30.936Z,3.13
2022-09-28T08:20:32.346Z,2.92
2022-09-28T08:23:08.899Z,2.97
2022-09-28T08:25:38.322Z,3.00
2022-09-28T08:28:07.313Z,2.97
2022-09-28T08:30:38.965Z,2.90
2022-09-28T08:33:38.687Z,3.20
2022-09-28T08:36:24.376Z,3.13
2022-09-28T08:39:10.250Z,3.08
2022-09-28T08:42:09.461Z,3.63
2022-09-28T08:45:11.549Z,3.20
2022-09-28T08:48:18.660Z,3.20
2022-09-28T08:51:30.117Z,3.35
2022-09-28T08:54:35.845Z,3.50
2022-09-28T08:57:34.219Z,3.63
2022-09-28T09:00:02.512Z,3.67
2022-09-28T09:02:36.274Z,3.55
2022-09-28T09:05:58.454Z,3.53
2022-09-28T09:09:01.159Z,3.40
2022-09-28T09:12:10.166Z,3.38
2022-09-28T09:14:41.714Z,3.38
2022-09-28T09:17:32.695Z,3.22
2022-09-28T09:20:20.273Z,3.38
2022-09-28T09:23:10.988Z,3.83
2022-09-28T09:25:42.858Z,3.20
2022-09-28T09:28:28.736Z,3.92
2022-09-28T09:30:55.761Z,3.10
2022-09-28T09:33:47.249Z,2.90
2022-09-28T09:37:11.390Z,3.05
2022-09-28T09:40:03.635Z,2.88
2022-09-28T09:43:06.419Z,2.92
2022-09-28T09:46:19.533Z,3.38
2022-09-28T09:49:07.532Z,3.28
2022-09-28T09:51:49.059Z,2.85
2022-09-28T09:57:15.826Z,2.78
2022-09-28T10:00:02.109Z,2.47
2022-09-28T10:02:48.247Z,2.50
2022-09-28T10:05:33.664Z,2.40
2022-09-28T10:08:11.025Z,2.42
2022-09-28T10:10:49.554Z,2.40
2022-09-28T10:13:18.645Z,2.50
2022-09-28T10:15:47.942Z,2.78
2022-09-28T10:18:22.693Z,2.60
2022-09-28T10:21:27.358Z,2.40
2022-09-28T10:23:59.443Z,2.60
2022-09-28T10:26:41.926Z,2.33
2022-09-28T10:29:17.951Z,2.05
2022-09-28T10:31:49.309Z,2.13
2022-09-28T10:34:27.827Z,2.10
2022-09-28T10:37:13.858Z,2.13
2022-09-28T10:39:55.796Z,2.22
2022-09-28T10:42:26.958Z,1.70
2022-09-28T10:45:00.259Z,1.90
2022-09-28T10:47:37.674Z,1.80
2022-09-28T10:50:24.198Z,1.60
2022-09-28T10:53:21.451Z,1.48
2022-09-28T10:56:04.994Z,1.27
2022-09-28T10:58:40.504Z,1.20
2022-09-28T11:01:17.547Z,1.30
2022-09-28T11:03:58.661Z,1.20
2022-09-28T11:06:27.465Z,1.40
2022-09-28T11:08:56.848Z,1.30
2022-09-28T11:11:24.777Z,1.50
2022-09-28T11:14:01.243Z,1.50
2022-09-28T11:16:33.419Z,1.70
2022-09-28T11:19:28.470Z,1.52
2022-09-28T11:21:55.505Z,1.52
2022-09-28T11:24:29.921Z,1.60
2022-09-28T11:27:00.262Z,1.50
2022-09-28T11:29:42.057Z,1.48
2022-09-28T11:32:21.996Z,1.45
2022-09-28T11:35:19.811Z,1.60
2022-09-28T11:38:04.566Z,1.50
2022-09-28T11:41:11.256Z,1.50
2022-09-28T11:44:07.558Z,1.30
2022-09-28T11:46:37.760Z,1.83
2022-09-28T11:49:28.171Z,1.38
2022-09-28T11:51:56.930Z,1.40
2022-09-28T11:54:40.883Z,1.40
2022-09-28T11:57:12.168Z,1.60
2022-09-28T11:59:41.310Z,1.40
2022-09-28T12:02:37.438Z,1.50
2022-09-28T12:05:26.497Z,1.42
2022-09-28T12:07:59.731Z,1.60
2022-09-28T12:11:15.847Z,1.48
2022-09-28T12:14:04.923Z,1.75
2022-09-28T12:17:04.074Z,1.38
2022-09-28T12:19:28.197Z,1.52
2022-09-28T12:22:01.226Z,1.50
2022-09-28T12:24:37.536Z,1.33
2022-09-28T12:27:10.439Z,1.83
2022-09-28T12:30:02.182Z,1.50
2022-09-28T12:33:09.258Z,1.40
2022-09-28T12:35:45.160Z,1.77
2022-09-28T12:39:08.450Z,1.50
2022-09-28T12:41:55.956Z,1.58
2022-09-28T12:44:32.915Z,1.67
2022-09-28T12:47:34.113Z,1.25
2022-09-28T12:50:37.675Z,1.40
2022-09-28T12:53:25.968Z,1.50
2022-09-28T12:56:02.597Z,1.60
2022-09-28T12:58:48.460Z,1.50
2022-09-28T13:01:37.258Z,1.73
2022-09-28T13:04:25.855Z,1.58
2022-09-28T13:07:06.834Z,2.05
2022-09-28T13:10:23.170Z,1.67
2022-09-28T13:13:18.311Z,1.60
2022-09-28T13:16:03.884Z,1.45
2022-09-28T13:18:36.538Z,1.40
2022-09-28T13:21:11.548Z,1.52
2022-09-28T13:23:46.364Z,1.50
2022-09-28T13:26:23.659Z,1.50
2022-09-28T13:28:51.531Z,1.65
2022-09-28T13:31:19.914Z,1.65
2022-09-28T13:33:46.901Z,1.50
2022-09-28T13:36:26.456Z,1.70
2022-09-28T13:38:54.195Z,1.58
2022-09-28T13:41:29.043Z,1.50
2022-09-28T13:43:58.981Z,1.23
2022-09-28T13:47:04.370Z,1.48
2022-09-28T13:50:02.512Z,1.30
2022-09-28T13:52:37.512Z,1.35
2022-09-28T13:55:23.506Z,1.40
2022-09-28T13:57:57.849Z,1.20
2022-09-28T14:00:38.298Z,1.33
2022-09-28T14:03:25.966Z,1.40
2022-09-28T14:06:11.010Z,1.60
2022-09-28T14:09:06.042Z,1.40
2022-09-28T14:11:35.928Z,1.50
2022-09-28T14:14:05.544Z,1.55
2022-09-28T14:16:33.359Z,1.50
2022-09-28T14:19:28.453Z,1.35
2022-09-28T14:22:13.858Z,1.60
2022-09-28T14:24:49.604Z,1.40
2022-09-28T14:27:56.908Z,1.42
2022-09-28T14:30:25.968Z,1.40
2022-09-28T14:32:55.209Z,1.55
2022-09-28T14:35:39.128Z,1.45
2022-09-28T14:38:37.034Z,1.50
2022-09-28T14:41:16.163Z,1.48
2022-09-28T14:43:46.255Z,1.73
2022-09-28T14:46:14.784Z,1.50
2022-09-28T14:48:44.543Z,1.40
2022-09-28T14:51:26.733Z,1.40
2022-09-28T14:53:54.774Z,1.20
2022-09-28T14:56:21.750Z,1.27
2022-09-28T14:58:53.800Z,1.25
2022-09-28T15:01:22.189Z,1.58
2022-09-28T15:03:55.227Z,1.52
2022-09-28T15:06:25.739Z,1.50
2022-09-28T15:08:53.002Z,1.33
2022-09-28T15:11:27.707Z,1.20
2022-09-28T15:14:06.162Z,1.30
2022-09-28T15:16:33.077Z,1.17
2022-09-28T15:19:00.188Z,1.67
2022-09-28T15:21:40.597Z,1.27
2022-09-28T15:24:28.646Z,1.60
2022-09-28T15:26:56.832Z,1.50
2022-09-28T15:29:24.092Z,1.50
2022-09-28T15:31:54.334Z,1.40
2022-09-28T15:34:54.622Z,1.30
2022-09-28T15:37:26.953Z,1.52
2022-09-28T15:39:54.790Z,1.38
2022-09-28T15:42:22.731Z,1.52
2022-09-28T15:45:24.898Z,1.48
2022-09-28T15:50:30.851Z,1.75
2022-09-28T15:53:00.899Z,1.80
2022-09-28T15:55:31.432Z,1.70
2022-09-28T15:58:15.849Z,1.60
2022-09-28T16:00:43.494Z,1.45
2022-09-28T16:03:10.534Z,1.50
2022-09-28T16:05:47.187Z,1.58
2022-09-28T16:08:24.693Z,1.50
2022-09-28T16:11:14.610Z,1.45
2022-09-28T16:14:07.329Z,1.35
2022-09-28T16:16:46.372Z,1.80
2022-09-28T16:19:30.451Z,1.75
2022-09-28T16:21:58.567Z,1.60
2022-09-28T16:24:31.101Z,1.50
2022-09-28T16:27:05.108Z,1.40
2022-09-28T16:29:40.272Z,1.50
2022-09-28T16:32:25.619Z,1.65
2022-09-28T16:35:11.039Z,1.50
2022-09-28T16:37:39.904Z,1.40
2022-09-28T16:40:08.778Z,1.48
2022-09-28T16:42:35.903Z,1.60
2022-09-28T16:45:05.135Z,1.63
2022-09-28T16:47:35.110Z,1.60
2022-09-28T16:50:04.383Z,1.58
2022-09-28T16:52:49.727Z,1.48
2022-09-28T16:55:39.546Z,2.00
2022-09-28T16:58:04.887Z,1.60
2022-09-28T17:00:32.527Z,1.60
2022-09-28T17:02:59.535Z,1.50
2022-09-28T17:05:26.480Z,1.55
2022-09-28T17:08:03.972Z,1.42
2022-09-28T17:11:02.557Z,1.70
2022-09-28T17:13:33.614Z,1.50
2022-09-28T17:16:01.799Z,1.60
2022-09-28T17:18:31.800Z,1.73
2022-09-28T17:21:00.618Z,1.60
2022-09-28T17:23:27.559Z,1.90
2022-09-28T17:25:55.713Z,1.88
2022-09-28T17:28:24.537Z,1.70
2022-09-28T17:30:51.693Z,1.85
2022-09-28T17:33:18.737Z,2.10
2022-09-28T17:35:45.834Z,1.95
2022-09-28T17:38:13.563Z,1.90
2022-09-28T17:40:41.005Z,2.00
2022-09-28T17:43:07.988Z,1.85
2022-09-28T17:45:38.899Z,2.08
2022-09-28T17:48:15.892Z,2.17
2022-09-28T17:50:46.381Z,2.10
2022-09-28T17:53:13.832Z,2.10
2022-09-28T17:55:40.920Z,2.20
2022-09-28T17:58:21.342Z,2.17
2022-09-28T18:00:49.899Z,2.03
2022-09-28T18:03:18.912Z,1.80
2022-09-28T18:05:46.680Z,1.92
2022-09-28T18:08:15.649Z,2.20
2022-09-28T18:10:42.584Z,2.20
2022-09-28T18:13:09.931Z,2.10
2022-09-28T18:15:36.919Z,2.20
2022-09-28T18:18:29.971Z,2.28
2022-09-28T18:20:56.904Z,2.30
2022-09-28T18:23:23.935Z,2.53
2022-09-28T18:25:50.863Z,2.50
2022-09-28T18:28:18.385Z,2.40
2022-09-28T18:30:45.601Z,2.58
2022-09-28T18:33:13.322Z,2.20
2022-09-28T18:35:40.508Z,2.80
2022-09-28T18:38:07.450Z,3.20
2022-09-28T18:40:35.031Z,3.17
2022-09-28T18:43:02.992Z,3.15
2022-09-28T18:45:29.918Z,2.90
2022-09-28T18:47:57.318Z,3.30
2022-09-28T18:50:24.223Z,2.78
2022-09-28T18:52:52.262Z,2.90
2022-09-28T18:55:19.185Z,3.33
2022-09-28T18:57:46.860Z,3.20
2022-09-28T19:00:15.253Z,3.35
2022-09-28T19:02:42.432Z,3.20
2022-09-28T19:05:09.804Z,3.17
2022-09-28T19:07:36.818Z,3.33
2022-09-28T19:10:04.103Z,3.42
2022-09-28T19:12:31.044Z,3.50
2022-09-28T19:14:59.672Z,3.20
2022-09-28T19:17:26.591Z,3.53
2022-09-28T19:19:53.474Z,3.58
2022-09-28T19:22:20.419Z,3.28
2022-09-28T19:24:47.491Z,3.28
2022-09-28T19:27:14.451Z,3.35
2022-09-28T19:29:41.391Z,3.53
2022-09-28T19:32:08.270Z,3.65
2022-09-28T19:34:35.255Z,4.30
2022-09-28T19:37:04.010Z,4.53
2022-09-28T19:39:31.152Z,4.18
2022-09-28T19:41:59.926Z,4.95
2022-09-28T19:44:28.214Z,4.90
2022-09-28T19:46:56.766Z,4.50
2022-09-28T19:49:24.347Z,5.30
2022-09-28T19:52:13.821Z,5.07
2022-09-28T19:54:58.120Z,5.25
2022-09-28T19:57:29.289Z,4.75
2022-09-28T20:00:02.360Z,5.70
2022-09-28T20:02:34.409Z,5.57
2022-09-28T20:05:01.811Z,5.60
2022-09-28T20:07:32.789Z,5.43
2022-09-28T20:09:59.866Z,5.30
2022-09-28T20:12:26.787Z,6.10
2022-09-28T20:14:54.322Z,5.95
2022-09-28T20:17:21.899Z,5.95
2022-09-28T20:19:51.097Z,6.07
2022-09-28T20:22:18.767Z,5.93
2022-09-28T20:24:45.925Z,6.43
2022-09-28T20:27:13.053Z,5.63
2022-09-28T20:29:39.976Z,5.88
2022-09-28T20:32:06.925Z,6.18
2022-09-28T20:34:34.044Z,5.82
2022-09-28T20:37:01.487Z,5.80
2022-09-28T20:39:28.717Z,5.85
2022-09-28T20:41:57.437Z,5.85
2022-09-28T20:44:24.897Z,5.88
2022-09-28T20:46:51.882Z,5.82
2022-09-28T20:49:18.784Z,6.70
2022-09-28T20:51:45.796Z,6.25
2022-09-28T20:54:12.994Z,6.30
2022-09-28T20:56:40.045Z,6.60
2022-09-28T20:59:11.470Z,6.10
2022-09-28T21:01:38.530Z,6.50
2022-09-28T21:04:06.862Z,6.20
2022-09-28T21:06:35.263Z,6.32
2022-09-28T21:09:02.231Z,6.53
2022-09-28T21:11:29.761Z,6.82
2022-09-28T21:14:01.152Z,6.68
2022-09-28T21:16:29.414Z,6.63
2022-09-28T21:18:56.433Z,6.82
2022-09-28T21:21:23.860Z,6.82
2022-09-28T21:23:57.360Z,6.30
2022-09-28T21:26:26.261Z,6.97
2022-09-28T21:28:57.989Z,6.72
2022-09-28T21:31:29.055Z,6.45
2022-09-28T21:33:57.040Z,6.30
2022-09-28T21:36:24.568Z,7.53
2022-09-28T21:38:51.502Z,6.57
2022-09-28T21:41:18.400Z,6.63
2022-09-28T21:43:45.650Z,7.07
2022-09-28T21:46:12.903Z,7.45
2022-09-28T21:48:40.077Z,6.72
2022-09-28T21:51:08.626Z,6.20
2022-09-28T21:53:36.847Z,6.65
2022-09-28T21:56:05.654Z,6.82
2022-09-28T21:58:33.699Z,6.75
2022-09-28T22:01:07.436Z,7.18
2022-09-28T22:03:35.602Z,6.95
2022-09-28T22:06:06.141Z,7.03
2022-09-28T22:08:33.496Z,6.82
2022-09-28T22:11:11.462Z,6.60
2022-09-28T22:13:49.183Z,6.85
2022-09-28T22:16:17.606Z,6.60
2022-09-28T22:18:44.632Z,6.20
2022-09-28T22:21:14.604Z,6.78
2022-09-28T22:23:41.574Z,6.43
2022-09-28T22:26:22.737Z,6.88
2022-09-28T22:28:57.136Z,6.50
2022-09-28T22:31:31.963Z,6.22
2022-09-28T22:33:59.076Z,5.90
2022-09-28T22:36:27.496Z,6.35
2022-09-28T22:38:55.004Z,5.88
2022-09-28T22:41:22.205Z,6.68
2022-09-28T22:43:49.912Z,6.13
2022-09-28T22:46:18.627Z,6.75
2022-09-28T22:48:53.044Z,6.10
2022-09-28T22:51:20.452Z,6.15
2022-09-28T22:53:47.335Z,6.50
2022-09-28T22:56:18.499Z,6.20
2022-09-28T22:58:46.266Z,5.85
2022-09-28T23:01:14.413Z,6.38
2022-09-28T23:03:42.263Z,6.53
2022-09-28T23:06:09.582Z,6.20
2022-09-28T23:08:36.530Z,6.20
2022-09-28T23:11:03.599Z,6.13
2022-09-28T23:13:31.147Z,6.30
2022-09-28T23:15:59.151Z,6.07
2022-09-28T23:18:28.085Z,5.82
2022-09-28T23:20:55.923Z,5.90
2022-09-28T23:23:23.100Z,6.10
2022-09-28T23:25:50.862Z,5.80
2022-09-28T23:28:18.517Z,5.97
2022-09-28T23:30:45.433Z,5.68
2022-09-28T23:33:13.359Z,5.80
2022-09-28T23:35:40.267Z,5.47
2022-09-28T23:38:07.865Z,5.78
2022-09-28T23:40:34.868Z,6.07
2022-09-28T23:43:01.834Z,5.72
2022-09-28T23:45:28.796Z,5.95
2022-09-28T23:47:56.879Z,5.53
2022-09-28T23:50:23.819Z,6.32
2022-09-28T23:52:50.890Z,5.63
2022-09-28T23:55:19.253Z,5.40
2022-09-28T23:57:46.318Z,5.90
